createdAt,value
2023-05-19T00:01:45.575Z,91739.16
2023-05-19T00:04:15.325Z,91745.56
2023-05-19T00:06:42.329Z,91742.75
2023-05-19T00:09:09.988Z,91732.94
2023-05-19T00:11:38.117Z,91729.31
2023-05-19T00:14:06.430Z,91731.84
2023-05-19T00:16:33.315Z,91731.59
2023-05-19T00:19:00.963Z,91737.31
2023-05-19T00:21:28.286Z,91742.47
2023-05-19T00:23:55.218Z,91735.53
2023-05-19T00:26:22.886Z,91730.72
2023-05-19T00:28:49.943Z,91733.84
2023-05-19T00:31:16.761Z,91727.75
2023-05-19T00:33:43.470Z,91725.41
2023-05-19T00:36:10.233Z,91729.59
2023-05-19T00:38:37.058Z,91729.47
2023-05-19T00:41:04.368Z,91724.44
2023-05-19T00:43:31.171Z,91732.63
2023-05-19T00:45:58.140Z,91723.56
2023-05-19T00:48:27.731Z,91725.47
2023-05-19T00:50:55.606Z,91724.78
2023-05-19T00:53:22.329Z,91719.28
2023-05-19T00:55:49.043Z,91708.59
2023-05-19T00:58:16.173Z,91720.19
2023-05-19T01:00:43.379Z,91718.84
2023-05-19T01:03:13.141Z,91713.34
2023-05-19T01:05:41.767Z,91715.25
2023-05-19T01:08:08.971Z,91710.03
2023-05-19T01:10:35.675Z,91723.09
2023-05-19T01:13:03.327Z,91715.88
2023-05-19T01:15:30.133Z,91724.81
2023-05-19T01:18:07.520Z,91711.69
2023-05-19T01:20:48.720Z,91718.94
2023-05-19T01:23:36.717Z,91714.47
2023-05-19T01:26:03.403Z,91714.47
2023-05-19T01:28:29.968Z,91718.69
2023-05-19T01:30:57.104Z,91708.34
2023-05-19T01:33:24.094Z,91721.97
2023-05-19T01:35:51.214Z,91714.94
2023-05-19T01:38:18.832Z,91706.34
2023-05-19T01:40:45.841Z,91708.16
2023-05-19T01:43:15.982Z,91715.91
2023-05-19T01:45:42.754Z,91705.03
2023-05-19T01:48:11.019Z,91706.22
2023-05-19T01:50:38.034Z,91695.78
2023-05-19T01:53:04.809Z,91701.53
2023-05-19T01:55:31.542Z,91700.25
2023-05-19T01:58:13.022Z,91709.81
2023-05-19T02:00:52.242Z,91710.13
2023-05-19T02:03:43.103Z,91698.47
2023-05-19T02:06:28.579Z,91710.72
2023-05-19T02:09:09.388Z,91706.44
2023-05-19T02:11:37.882Z,91709.78
2023-05-19T02:14:34.390Z,91714.16
2023-05-19T02:17:01.169Z,91701.94
2023-05-19T02:19:34.975Z,91717.50
2023-05-19T02:22:01.639Z,91710.06
2023-05-19T02:24:28.237Z,91717.53
2023-05-19T02:26:55.057Z,91714.38
2023-05-19T02:29:21.780Z,91713.69
2023-05-19T02:31:48.561Z,91717.94
2023-05-19T02:34:15.463Z,91718.81
2023-05-19T02:36:44.943Z,91719.97
2023-05-19T02:39:11.813Z,91721.91
2023-05-19T02:41:38.895Z,91722.19
2023-05-19T02:44:05.637Z,91717.00
2023-05-19T02:46:32.332Z,91718.47
2023-05-19T02:48:59.160Z,91724.41
2023-05-19T02:51:25.909Z,91728.06
2023-05-19T02:53:52.586Z,91726.38
2023-05-19T02:56:19.249Z,91735.38
2023-05-19T02:58:46.014Z,91731.84
2023-05-19T03:01:12.715Z,91731.94
2023-05-19T03:03:39.579Z,91733.06
2023-05-19T03:06:08.800Z,91742.41
2023-05-19T03:08:36.217Z,91737.81
2023-05-19T03:11:03.269Z,91739.84
2023-05-19T03:13:30.010Z,91741.13
2023-05-19T03:15:58.863Z,91743.25
2023-05-19T03:18:28.632Z,91741.13
2023-05-19T03:20:55.621Z,91740.47
2023-05-19T03:23:22.400Z,91740.03
2023-05-19T03:25:49.103Z,91737.09
2023-05-19T03:28:15.901Z,91748.56
2023-05-19T03:30:42.569Z,91745.75
2023-05-19T03:33:09.508Z,91736.75
2023-05-19T03:35:36.275Z,91738.59
2023-05-19T03:38:02.967Z,91739.28
2023-05-19T03:40:29.708Z,91744.63
2023-05-19T03:42:56.834Z,91746.47
2023-05-19T03:45:23.495Z,91737.91
2023-05-19T03:47:50.378Z,91750.13
2023-05-19T03:50:16.983Z,91749.59
2023-05-19T03:52:46.533Z,91752.44
2023-05-19T03:55:14.812Z,91740.69
2023-05-19T03:57:41.652Z,91748.38
2023-05-19T04:00:11.289Z,91757.69
2023-05-19T04:02:38.185Z,91748.44
2023-05-19T04:05:05.276Z,91757.28
2023-05-19T04:07:32.048Z,91754.19
2023-05-19T04:09:58.820Z,91756.69
2023-05-19T04:12:25.543Z,91744.84
2023-05-19T04:14:52.275Z,91746.28
2023-05-19T04:17:19.041Z,91751.16
2023-05-19T04:19:45.850Z,91764.44
2023-05-19T04:22:12.517Z,91762.50
2023-05-19T04:24:39.249Z,91766.09
2023-05-19T04:27:12.048Z,91764.13
2023-05-19T04:29:40.119Z,91767.59
2023-05-19T04:32:07.886Z,91763.97
2023-05-19T04:34:35.380Z,91768.19
2023-05-19T04:37:02.633Z,91771.13
2023-05-19T04:39:29.363Z,91770.50
2023-05-19T04:41:56.661Z,91759.94
2023-05-19T04:44:23.501Z,91760.56
2023-05-19T04:46:54.222Z,91774.38
2023-05-19T04:49:21.238Z,91776.19
2023-05-19T04:51:50.550Z,91768.75
2023-05-19T04:54:18.142Z,91766.84
2023-05-19T04:56:44.902Z,91779.88
2023-05-19T04:59:11.569Z,91783.91
2023-05-19T05:01:43.127Z,91774.38
2023-05-19T05:04:10.063Z,91781.47
2023-05-19T05:06:38.495Z,91778.28
2023-05-19T05:09:05.271Z,91788.84
2023-05-19T05:11:32.212Z,91780.56
2023-05-19T05:13:59.308Z,91775.28
2023-05-19T05:16:26.741Z,91785.44
2023-05-19T05:18:53.793Z,91794.19
2023-05-19T05:21:20.867Z,91793.59
2023-05-19T05:23:47.799Z,91791.84
2023-05-19T05:26:18.712Z,91790.34
2023-05-19T05:28:45.632Z,91795.22
2023-05-19T05:31:12.319Z,91793.22
2023-05-19T05:33:39.105Z,91795.50
2023-05-19T05:36:06.202Z,91795.19
2023-05-19T05:38:32.992Z,91797.53
2023-05-19T05:41:00.514Z,91805.31
2023-05-19T05:43:27.213Z,91806.84
2023-05-19T05:45:53.931Z,91806.38
2023-05-19T05:48:20.915Z,91805.84
2023-05-19T05:50:47.672Z,91812.22
2023-05-19T05:53:18.485Z,91806.97
2023-05-19T05:55:46.649Z,91820.63
2023-05-19T05:58:14.925Z,91821.09
2023-05-19T06:00:45.392Z,91823.22
2023-05-19T06:03:12.325Z,91831.47
2023-05-19T06:05:39.423Z,91826.84
2023-05-19T06:08:06.337Z,91828.38
2023-05-19T06:10:33.463Z,91828.56
2023-05-19T06:13:00.499Z,91826.38
2023-05-19T06:15:27.274Z,91826.25
2023-05-19T06:17:54.899Z,91824.81
2023-05-19T06:20:21.934Z,91837.97
2023-05-19T06:22:48.672Z,91831.88
2023-05-19T06:25:15.820Z,91833.44
2023-05-19T06:27:42.517Z,91828.00
2023-05-19T06:30:09.556Z,91832.03
2023-05-19T06:32:36.214Z,91824.69
2023-05-19T06:35:03.107Z,91835.41
2023-05-19T06:37:29.851Z,91845.28
2023-05-19T06:39:56.610Z,91838.56
2023-05-19T06:42:24.158Z,91839.38
2023-05-19T06:44:51.444Z,91836.75
2023-05-19T06:47:18.398Z,91842.28
2023-05-19T06:49:45.692Z,91836.59
2023-05-19T06:52:12.366Z,91846.13
2023-05-19T06:54:39.145Z,91844.13
2023-05-19T06:57:05.910Z,91846.97
2023-05-19T06:59:32.759Z,91848.13
2023-05-19T07:01:59.555Z,91842.75
2023-05-19T07:04:26.262Z,91853.22
2023-05-19T07:06:53.487Z,91845.38
2023-05-19T07:09:20.278Z,91853.41
2023-05-19T07:11:47.470Z,91851.75
2023-05-19T07:14:14.153Z,91857.97
2023-05-19T07:16:40.985Z,91855.72
2023-05-19T07:19:07.784Z,91856.06
2023-05-19T07:21:34.585Z,91854.16
2023-05-19T07:24:01.309Z,91855.38
2023-05-19T07:26:28.182Z,91855.03
2023-05-19T07:28:54.873Z,91852.84
2023-05-19T07:31:21.640Z,91862.44
2023-05-19T07:33:48.321Z,91856.38
2023-05-19T07:36:14.961Z,91867.53
2023-05-19T07:38:41.728Z,91853.63
2023-05-19T07:41:08.483Z,91858.84
2023-05-19T07:43:35.257Z,91846.00
2023-05-19T07:46:01.985Z,91846.03
2023-05-19T07:48:29.594Z,91849.34
2023-05-19T07:50:56.382Z,91849.34
2023-05-19T07:53:23.304Z,91843.56
2023-05-19T07:55:50.230Z,91847.44
2023-05-19T07:58:17.511Z,91848.91
2023-05-19T08:00:45.898Z,91846.72
2023-05-19T08:03:13.347Z,91853.38
2023-05-19T08:05:40.622Z,91851.47
2023-05-19T08:08:07.355Z,91851.47
2023-05-19T08:10:34.403Z,91856.78
2023-05-19T08:13:01.372Z,91843.97
2023-05-19T08:15:28.078Z,91848.84
2023-05-19T08:17:54.868Z,91850.03
2023-05-19T08:20:22.942Z,91847.72
2023-05-19T08:22:49.813Z,91841.09
2023-05-19T08:25:16.570Z,91841.28
2023-05-19T08:27:43.322Z,91858.13
2023-05-19T08:30:10.608Z,91851.25
2023-05-19T08:32:37.267Z,91845.75
2023-05-19T08:35:04.400Z,91841.16
2023-05-19T08:37:33.371Z,91842.44
2023-05-19T08:40:00.952Z,91841.28
2023-05-19T08:42:27.679Z,91841.88
2023-05-19T08:44:54.365Z,91841.88
2023-05-19T08:47:21.140Z,91841.84
2023-05-19T08:49:50.551Z,91843.72
2023-05-19T08:52:50.145Z,91847.28
2023-05-19T08:55:39.846Z,91849.38
2023-05-19T08:58:06.802Z,91843.81
2023-05-19T09:00:33.796Z,91846.47
2023-05-19T09:03:17.488Z,91837.34
2023-05-19T09:05:45.707Z,91845.53
2023-05-19T09:08:12.581Z,91838.09
2023-05-19T09:10:39.304Z,91836.78
2023-05-19T09:13:06.458Z,91829.28
2023-05-19T09:15:34.098Z,91826.91
2023-05-19T09:18:11.154Z,91828.94
2023-05-19T09:20:42.185Z,91830.31
2023-05-19T09:23:13.886Z,91834.16
2023-05-19T09:25:50.262Z,91833.13
2023-05-19T09:28:36.483Z,91828.03
2023-05-19T09:31:07.417Z,91828.38
2023-05-19T09:33:35.710Z,91827.91
2023-05-19T09:36:03.616Z,91832.78
2023-05-19T09:38:30.264Z,91824.41
2023-05-19T09:40:58.220Z,91832.94
2023-05-19T09:43:28.085Z,91827.22
2023-05-19T09:46:03.742Z,91830.06
2023-05-19T09:48:30.581Z,91825.84
2023-05-19T09:50:57.951Z,91818.69
2023-05-19T09:53:25.475Z,91824.63
2023-05-19T09:55:57.554Z,91824.31
2023-05-19T09:58:27.101Z,91818.63
2023-05-19T10:00:54.867Z,91822.28
2023-05-19T10:03:24.531Z,91820.84
2023-05-19T10:05:51.313Z,91821.44
2023-05-19T10:08:18.106Z,91813.44
2023-05-19T10:10:48.057Z,91821.31
2023-05-19T10:13:14.875Z,91812.72
2023-05-19T10:15:57.067Z,91818.84
2023-05-19T10:18:25.375Z,91815.25
2023-05-19T10:20:52.172Z,91817.47
2023-05-19T10:23:18.972Z,91823.47
2023-05-19T10:25:45.673Z,91802.41
2023-05-19T10:28:14.152Z,91809.66
2023-05-19T10:30:46.081Z,91805.22
2023-05-19T10:33:14.837Z,91807.97
2023-05-19T10:36:09.160Z,91819.75
2023-05-19T10:38:48.471Z,91814.13
2023-05-19T10:41:28.928Z,91812.75
2023-05-19T10:44:02.670Z,91804.69
2023-05-19T10:46:29.652Z,91807.63
2023-05-19T10:48:56.457Z,91812.69
2023-05-19T10:51:31.429Z,91820.06
2023-05-19T10:53:58.956Z,91815.09
2023-05-19T10:56:36.427Z,91815.09
2023-05-19T10:59:03.456Z,91815.69
2023-05-19T11:01:34.220Z,91821.34
2023-05-19T11:04:13.992Z,91819.34
2023-05-19T11:06:41.260Z,91816.84
2023-05-19T11:09:19.764Z,91812.06
2023-05-19T11:11:52.638Z,91811.47
2023-05-19T11:14:21.082Z,91807.31
2023-05-19T11:16:48.653Z,91809.06
2023-05-19T11:19:28.167Z,91803.13
2023-05-19T11:21:55.476Z,91809.63
2023-05-19T11:24:44.643Z,91808.78
2023-05-19T11:27:28.139Z,91816.34
2023-05-19T11:29:56.037Z,91816.06
2023-05-19T11:32:25.353Z,91817.91
2023-05-19T11:34:52.261Z,91824.06
2023-05-19T11:37:19.036Z,91823.50
2023-05-19T11:39:46.853Z,91828.50
2023-05-19T11:42:13.611Z,91831.97
2023-05-19T11:44:43.013Z,91828.78
2023-05-19T11:47:09.776Z,91830.44
2023-05-19T11:49:36.502Z,91837.63
2023-05-19T11:52:04.050Z,91846.25
2023-05-19T11:54:36.544Z,91851.03
2023-05-19T11:57:03.793Z,91858.75
2023-05-19T11:59:35.817Z,91865.03
2023-05-19T12:02:08.297Z,91871.34
2023-05-19T12:04:35.142Z,91871.25
2023-05-19T12:07:01.876Z,91873.72
2023-05-19T12:09:28.594Z,91879.56
2023-05-19T12:11:55.364Z,91886.22
2023-05-19T12:14:22.108Z,91891.31
2023-05-19T12:16:48.990Z,91888.91
2023-05-19T12:19:15.872Z,91884.50
2023-05-19T12:21:42.604Z,91876.72
2023-05-19T12:24:09.354Z,91869.06
2023-05-19T12:26:37.141Z,91860.13
2023-05-19T12:29:07.251Z,91856.13
2023-05-19T12:31:38.098Z,91843.97
2023-05-19T12:34:04.907Z,91842.34
2023-05-19T12:36:32.199Z,91832.19
2023-05-19T12:38:59.007Z,91826.88
2023-05-19T12:41:27.398Z,91829.56
2023-05-19T12:43:56.887Z,91818.75
2023-05-19T12:46:23.714Z,91824.34
2023-05-19T12:48:50.904Z,91820.75
2023-05-19T12:51:18.895Z,91816.78
2023-05-19T12:53:47.090Z,91816.16
2023-05-19T12:56:17.166Z,91811.34
2023-05-19T12:58:44.100Z,91809.84
2023-05-19T13:01:17.851Z,91812.97
2023-05-19T13:03:44.922Z,91807.72
2023-05-19T13:06:11.833Z,91805.00
2023-05-19T13:08:41.486Z,91811.53
2023-05-19T13:11:08.273Z,91813.00
2023-05-19T13:13:35.028Z,91811.94
2023-05-19T13:16:01.751Z,91816.22
2023-05-19T13:18:32.008Z,91816.19
2023-05-19T13:20:58.693Z,91805.69
2023-05-19T13:23:26.287Z,91804.16
2023-05-19T13:25:53.053Z,91808.34
2023-05-19T13:28:19.782Z,91804.25
2023-05-19T13:30:46.464Z,91796.22
2023-05-19T13:33:13.303Z,91793.50
2023-05-19T13:35:40.103Z,91793.03
2023-05-19T13:38:07.983Z,91786.13
2023-05-19T13:40:35.140Z,91786.06
2023-05-19T13:43:02.755Z,91786.06
2023-05-19T13:45:29.584Z,91785.25
2023-05-19T13:47:57.059Z,91786.44
2023-05-19T13:50:23.846Z,91783.47
2023-05-19T13:52:50.635Z,91792.66
2023-05-19T13:55:17.543Z,91789.72
2023-05-19T13:57:44.937Z,91796.31
2023-05-19T14:00:11.946Z,91789.63
2023-05-19T14:02:39.398Z,91793.84
2023-05-19T14:05:07.361Z,91784.69
2023-05-19T14:07:35.210Z,91797.94
2023-05-19T14:10:02.823Z,91790.97
2023-05-19T14:12:37.869Z,91792.06
2023-05-19T14:15:13.953Z,91789.44
2023-05-19T14:17:40.701Z,91786.66
2023-05-19T14:20:07.954Z,91787.41
2023-05-19T14:22:34.678Z,91785.28
2023-05-19T14:25:02.205Z,91794.31
2023-05-19T14:27:28.902Z,91795.91
2023-05-19T14:29:55.674Z,91780.66
2023-05-19T14:32:22.493Z,91780.38
2023-05-19T14:34:52.835Z,91780.94
2023-05-19T14:37:20.234Z,91779.25
2023-05-19T14:39:46.913Z,91784.84
2023-05-19T14:42:13.659Z,91775.97
2023-05-19T14:44:40.419Z,91781.03
2023-05-19T14:47:07.560Z,91788.03
2023-05-19T14:49:34.485Z,91783.34
2023-05-19T14:52:01.343Z,91781.47
2023-05-19T14:54:28.156Z,91780.81
2023-05-19T14:56:54.819Z,91794.34
2023-05-19T14:59:21.851Z,91789.72
2023-05-19T15:01:48.663Z,91784.41
2023-05-19T15:04:15.577Z,91796.31
2023-05-19T15:06:42.474Z,91796.63
2023-05-19T15:09:09.513Z,91798.78
2023-05-19T15:11:36.210Z,91800.28
2023-05-19T15:14:02.889Z,91797.31
2023-05-19T15:16:29.649Z,91794.19
2023-05-19T15:18:56.820Z,91796.00
2023-05-19T15:21:23.527Z,91791.78
2023-05-19T15:23:50.214Z,91798.84
2023-05-19T15:26:17.006Z,91795.34
2023-05-19T15:28:43.630Z,91796.50
2023-05-19T15:31:10.379Z,91800.13
2023-05-19T15:33:37.360Z,91793.97
2023-05-19T15:36:04.323Z,91793.91
2023-05-19T15:38:31.921Z,91791.59
2023-05-19T15:40:58.746Z,91793.69
2023-05-19T15:43:25.471Z,91792.81
2023-05-19T15:45:54.865Z,91782.69
2023-05-19T15:48:21.636Z,91794.22
2023-05-19T15:50:48.879Z,91784.97
2023-05-19T15:53:15.622Z,91797.28
2023-05-19T15:55:42.340Z,91797.78
2023-05-19T15:58:09.056Z,91798.22
2023-05-19T16:00:35.841Z,91793.22
2023-05-19T16:03:02.758Z,91807.38
2023-05-19T16:05:29.621Z,91795.69
2023-05-19T16:07:56.372Z,91801.94
2023-05-19T16:10:23.060Z,91792.81
2023-05-19T16:12:49.890Z,91797.78
2023-05-19T16:15:16.833Z,91802.41
2023-05-19T16:17:43.599Z,91803.59
2023-05-19T16:20:11.104Z,91808.84
2023-05-19T16:22:37.775Z,91815.63
2023-05-19T16:25:05.086Z,91801.81
2023-05-19T16:27:31.749Z,91806.56
2023-05-19T16:29:58.476Z,91805.47
2023-05-19T16:32:25.268Z,91801.94
2023-05-19T16:34:52.011Z,91810.47
2023-05-19T16:37:19.060Z,91805.09
2023-05-19T16:39:48.337Z,91818.41
2023-05-19T16:42:15.028Z,91826.50
2023-05-19T16:44:42.618Z,91822.38
2023-05-19T16:47:09.370Z,91820.75
2023-05-19T16:49:36.115Z,91817.81
2023-05-19T16:52:02.868Z,91820.03
2023-05-19T16:54:29.544Z,91817.53
2023-05-19T16:56:57.534Z,91820.22
2023-05-19T16:59:24.328Z,91814.66
2023-05-19T17:01:51.265Z,91821.63
2023-05-19T17:04:17.994Z,91819.78
2023-05-19T17:06:46.203Z,91822.66
2023-05-19T17:09:13.050Z,91823.22
2023-05-19T17:11:39.750Z,91823.91
2023-05-19T17:14:09.304Z,91813.91
2023-05-19T17:16:36.331Z,91827.31
2023-05-19T17:19:03.653Z,91817.09
2023-05-19T17:21:31.510Z,91828.16
2023-05-19T17:23:58.188Z,91834.22
2023-05-19T17:26:24.874Z,91822.53
2023-05-19T17:28:51.644Z,91832.06
2023-05-19T17:31:18.399Z,91829.88
2023-05-19T17:33:45.099Z,91835.69
2023-05-19T17:36:11.794Z,91838.84
2023-05-19T17:38:40.504Z,91852.91
2023-05-19T17:41:10.200Z,91865.44
2023-05-19T17:43:37.590Z,91873.19
2023-05-19T17:46:04.662Z,91869.59
2023-05-19T17:48:31.412Z,91861.72
2023-05-19T17:50:58.260Z,91872.03
2023-05-19T17:53:25.303Z,91873.59
2023-05-19T17:55:53.413Z,91884.91
2023-05-19T17:58:20.284Z,91878.13
2023-05-19T18:00:47.136Z,91874.13
2023-05-19T18:03:14.336Z,91868.69
2023-05-19T18:05:43.306Z,91877.00
2023-05-19T18:08:10.793Z,91876.44
2023-05-19T18:10:38.469Z,91885.59
2023-05-19T18:13:05.721Z,91897.16
2023-05-19T18:15:32.457Z,91903.38
2023-05-19T18:17:59.282Z,91909.22
2023-05-19T18:20:26.019Z,91904.03
2023-05-19T18:22:52.770Z,91906.22
2023-05-19T18:25:20.909Z,91914.41
2023-05-19T18:27:47.675Z,91912.56
2023-05-19T18:30:15.582Z,91923.50
2023-05-19T18:32:42.374Z,91919.16
2023-05-19T18:35:09.538Z,91919.59
2023-05-19T18:37:36.415Z,91916.31
2023-05-19T18:40:03.131Z,91915.47
2023-05-19T18:42:29.932Z,91918.41
2023-05-19T18:44:56.775Z,91917.06
2023-05-19T18:47:23.428Z,91919.91
2023-05-19T18:49:50.262Z,91920.41
2023-05-19T18:52:17.010Z,91917.84
2023-05-19T18:54:45.973Z,91932.44
2023-05-19T18:57:12.950Z,91931.47
2023-05-19T18:59:39.919Z,91939.44
2023-05-19T19:02:06.812Z,91942.78
2023-05-19T19:04:33.676Z,91941.31
2023-05-19T19:07:01.341Z,91946.25
2023-05-19T19:09:28.403Z,91945.34
2023-05-19T19:11:55.169Z,91947.72
2023-05-19T19:14:21.883Z,91949.63
2023-05-19T19:16:48.736Z,91940.25
2023-05-19T19:19:15.441Z,91944.66
2023-05-19T19:21:42.350Z,91933.22
2023-05-19T19:24:09.078Z,91931.88
2023-05-19T19:26:36.921Z,91936.91
2023-05-19T19:29:03.811Z,91936.00
2023-05-19T19:31:30.730Z,91940.81
2023-05-19T19:34:03.829Z,91942.03
2023-05-19T19:36:31.898Z,91939.03
2023-05-19T19:38:58.712Z,91944.34
2023-05-19T19:41:26.587Z,91941.78
2023-05-19T19:43:53.282Z,91945.44
2023-05-19T19:46:20.023Z,91938.56
2023-05-19T19:48:46.797Z,91939.81
2023-05-19T19:51:13.552Z,91939.59
2023-05-19T19:53:40.308Z,91943.16
2023-05-19T19:56:07.259Z,91932.38
2023-05-19T19:58:33.861Z,91913.31
2023-05-19T20:01:02.222Z,91924.94
2023-05-19T20:03:29.422Z,91928.66
2023-05-19T20:05:58.900Z,91926.38
2023-05-19T20:08:25.555Z,91937.16
2023-05-19T20:10:52.498Z,91946.66
2023-05-19T20:13:19.232Z,91942.69
2023-05-19T20:15:46.581Z,91941.25
2023-05-19T20:18:13.306Z,91944.38
2023-05-19T20:20:40.071Z,91944.41
2023-05-19T20:23:07.752Z,91934.84
2023-05-19T20:25:34.928Z,91936.38
2023-05-19T20:28:02.223Z,91931.75
2023-05-19T20:30:28.870Z,91934.41
2023-05-19T20:32:55.663Z,91937.03
2023-05-19T20:35:22.520Z,91940.53
2023-05-19T20:37:49.522Z,91940.94
2023-05-19T20:40:16.228Z,91931.06
2023-05-19T20:42:42.974Z,91939.16
2023-05-19T20:45:09.880Z,91937.94
2023-05-19T20:47:36.863Z,91947.84
2023-05-19T20:50:03.770Z,91950.31
2023-05-19T20:52:30.686Z,91949.84
2023-05-19T20:54:57.472Z,91931.53
2023-05-19T20:57:24.212Z,91943.97
2023-05-19T20:59:51.302Z,91938.84
2023-05-19T21:02:17.961Z,91946.22
2023-05-19T21:04:45.995Z,91939.69
2023-05-19T21:07:12.798Z,91945.97
2023-05-19T21:09:39.566Z,91947.97
2023-05-19T21:12:07.386Z,91948.16
2023-05-19T21:14:34.045Z,91948.91
2023-05-19T21:17:00.907Z,91950.31
2023-05-19T21:19:27.774Z,91950.75
2023-05-19T21:21:54.603Z,91960.91
2023-05-19T21:24:21.335Z,91959.88
2023-05-19T21:26:49.258Z,91958.22
2023-05-19T21:29:15.994Z,91960.84
2023-05-19T21:31:42.785Z,91953.78
2023-05-19T21:34:09.555Z,91950.97
2023-05-19T21:36:36.316Z,91956.34
2023-05-19T21:39:04.537Z,91950.44
2023-05-19T21:41:32.415Z,91954.03
2023-05-19T21:43:59.128Z,91950.91
2023-05-19T21:46:27.906Z,91954.19
2023-05-19T21:48:54.781Z,91951.50
2023-05-19T21:51:21.600Z,91952.81
2023-05-19T21:53:48.286Z,91959.03
2023-05-19T21:56:16.326Z,91955.91
2023-05-19T21:58:43.122Z,91954.09
2023-05-19T22:01:09.864Z,91954.44
2023-05-19T22:03:36.718Z,91957.78
2023-05-19T22:06:03.619Z,91945.72
2023-05-19T22:08:30.284Z,91949.78
2023-05-19T22:10:57.148Z,91943.16
2023-05-19T22:13:23.850Z,91943.16
2023-05-19T22:15:50.884Z,91940.81
2023-05-19T22:18:17.561Z,91947.81
2023-05-19T22:20:44.317Z,91943.56
2023-05-19T22:23:10.993Z,91946.50
2023-05-19T22:25:37.840Z,91946.00
2023-05-19T22:28:07.503Z,91940.66
2023-05-19T22:30:40.849Z,91938.22
2023-05-19T22:33:11.744Z,91934.97
2023-05-19T22:35:38.584Z,91937.13
2023-05-19T22:38:05.270Z,91934.91
2023-05-19T22:40:32.736Z,91934.38
2023-05-19T22:42:59.675Z,91940.56
2023-05-19T22:45:26.457Z,91944.28
2023-05-19T22:47:55.241Z,91946.22
2023-05-19T22:50:22.326Z,91942.72
2023-05-19T22:52:49.119Z,91942.91
2023-05-19T22:55:16.511Z,91939.66
2023-05-19T22:57:43.209Z,91945.03
2023-05-19T23:00:10.692Z,91929.50
2023-05-19T23:02:37.560Z,91928.91
2023-05-19T23:05:04.504Z,91921.34
2023-05-19T23:07:31.396Z,91928.28
2023-05-19T23:09:58.126Z,91931.78
2023-05-19T23:12:24.975Z,91922.22
2023-05-19T23:14:52.454Z,91917.69
2023-05-19T23:17:19.153Z,91915.41
2023-05-19T23:19:46.055Z,91910.47
2023-05-19T23:22:12.711Z,91903.97
2023-05-19T23:24:39.400Z,91901.59
2023-05-19T23:27:06.559Z,91897.53
2023-05-19T23:29:33.288Z,91904.22
2023-05-19T23:32:00.058Z,91900.88
2023-05-19T23:34:26.716Z,91892.97
2023-05-19T23:36:53.357Z,91893.06
2023-05-19T23:39:20.088Z,91887.72
2023-05-19T23:41:46.825Z,91880.06
2023-05-19T23:44:13.525Z,91881.59
2023-05-19T23:46:40.304Z,91886.34
2023-05-19T23:49:07.021Z,91882.66
2023-05-19T23:51:33.749Z,91879.75
2023-05-19T23:54:00.460Z,91878.94
2023-05-19T23:56:27.126Z,91875.31
2023-05-19T23:58:53.828Z,91874.34
